createdAt,value
2022-09-01T00:00:13.583Z,8.00
2022-09-01T00:02:44.256Z,11.20
2022-09-01T00:05:13.380Z,7.43
2022-09-01T00:07:42.569Z,10.52
2022-09-01T00:10:11.825Z,8.48
2022-09-01T00:12:40.931Z,11.15
2022-09-01T00:15:13.049Z,9.30
2022-09-01T00:17:42.300Z,8.88
2022-09-01T00:20:14.903Z,12.20
2022-09-01T00:22:46.164Z,12.90
2022-09-01T00:25:15.242Z,9.05
2022-09-01T00:27:44.230Z,12.85
2022-09-01T00:30:15.234Z,10.38
2022-09-01T00:32:46.793Z,12.70
2022-09-01T00:35:16.875Z,8.45
2022-09-01T00:37:46.033Z,12.30
2022-09-01T00:40:16.397Z,9.55
2022-09-01T00:42:45.983Z,11.70
2022-09-01T00:45:17.335Z,15.73
2022-09-01T00:50:17.974Z,13.38
2022-09-01T00:52:49.560Z,12.27
2022-09-01T00:55:24.381Z,17.17
2022-09-01T00:57:53.712Z,10.55
2022-09-01T01:00:27.636Z,9.40
2022-09-01T01:02:57.098Z,12.38
2022-09-01T01:05:28.624Z,12.13
2022-09-01T01:07:58.379Z,9.30
2022-09-01T01:10:27.567Z,14.35
2022-09-01T01:12:56.598Z,13.23
2022-09-01T01:15:27.193Z,9.48
2022-09-01T01:17:56.284Z,15.60
2022-09-01T01:20:48.266Z,9.20
2022-09-01T01:23:26.805Z,11.00
2022-09-01T01:25:59.786Z,10.60
2022-09-01T01:28:33.340Z,9.68
2022-09-01T01:31:11.982Z,10.70
2022-09-01T01:33:44.731Z,14.45
2022-09-01T01:36:17.445Z,14.10
2022-09-01T01:38:49.835Z,11.50
2022-09-01T01:41:22.070Z,13.65
2022-09-01T01:43:51.581Z,15.73
2022-09-01T01:46:21.969Z,16.83
2022-09-01T01:48:53.949Z,8.60
2022-09-01T01:51:26.899Z,9.60
2022-09-01T01:53:57.075Z,14.27
2022-09-01T01:56:28.194Z,12.85
2022-09-01T01:58:58.971Z,11.70
2022-09-01T02:01:32.241Z,12.52
2022-09-01T02:04:04.377Z,17.63
2022-09-01T02:06:35.353Z,16.25
2022-09-01T02:09:05.275Z,14.50
2022-09-01T02:11:38.005Z,9.60
2022-09-01T02:14:09.919Z,11.40
2022-09-01T02:16:39.137Z,9.60
2022-09-01T02:19:10.666Z,11.68
2022-09-01T02:21:45.189Z,13.95
2022-09-01T02:24:15.649Z,10.05
2022-09-01T02:26:49.083Z,13.93
2022-09-01T02:29:22.244Z,10.95
2022-09-01T02:31:53.108Z,15.98
2022-09-01T02:34:24.322Z,15.32
2022-09-01T02:36:57.243Z,12.60
2022-09-01T02:39:29.775Z,13.43
2022-09-01T02:42:01.432Z,13.02
2022-09-01T02:44:32.255Z,16.05
2022-09-01T02:47:05.641Z,12.35
2022-09-01T02:49:36.188Z,8.45
2022-09-01T02:52:06.343Z,10.02
2022-09-01T02:54:36.453Z,9.32
2022-09-01T02:57:09.139Z,10.82
2022-09-01T02:59:43.130Z,10.80
2022-09-01T03:02:12.846Z,7.47
2022-09-01T03:04:42.011Z,10.13
2022-09-01T03:07:13.877Z,9.57
2022-09-01T03:09:43.809Z,15.63
2022-09-01T03:12:14.573Z,11.85
2022-09-01T03:14:43.711Z,10.93
2022-09-01T03:17:14.133Z,8.90
2022-09-01T03:19:45.336Z,11.97
2022-09-01T03:22:14.382Z,14.27
2022-09-01T03:24:43.820Z,10.05
2022-09-01T03:27:14.259Z,10.80
2022-09-01T03:29:43.405Z,9.87
2022-09-01T03:32:12.459Z,11.00
2022-09-01T03:34:42.096Z,7.22
2022-09-01T03:37:12.305Z,8.88
2022-09-01T03:39:41.458Z,12.55
2022-09-01T03:42:12.680Z,10.80
2022-09-01T03:44:44.771Z,9.32
2022-09-01T03:47:17.158Z,9.57
2022-09-01T03:49:49.291Z,9.75
2022-09-01T03:52:19.174Z,8.07
2022-09-01T03:54:54.053Z,8.30
2022-09-01T03:57:23.405Z,8.52
2022-09-01T03:59:55.268Z,9.20
2022-09-01T04:02:26.016Z,9.05
2022-09-01T04:04:55.484Z,11.77
2022-09-01T04:07:26.452Z,7.13
2022-09-01T04:09:55.746Z,11.15
2022-09-01T04:12:25.953Z,8.02
2022-09-01T04:14:56.442Z,9.95
2022-09-01T04:17:42.610Z,10.93
2022-09-01T04:20:12.175Z,11.77
2022-09-01T04:22:41.278Z,12.80
2022-09-01T04:25:11.571Z,8.70
2022-09-01T04:27:42.124Z,8.30
2022-09-01T04:30:13.318Z,8.40
2022-09-01T04:32:47.168Z,14.05
2022-09-01T04:35:17.392Z,9.90
2022-09-01T04:37:47.772Z,10.18
2022-09-01T04:40:18.845Z,10.88
2022-09-01T04:42:48.793Z,13.57
2022-09-01T04:45:28.009Z,12.98
2022-09-01T04:48:00.955Z,10.57
2022-09-01T04:50:31.037Z,12.93
2022-09-01T04:53:32.894Z,13.10
2022-09-01T04:56:04.743Z,12.75
2022-09-01T04:58:38.906Z,15.40
2022-09-01T05:01:17.533Z,11.32
2022-09-01T05:03:48.253Z,13.48
2022-09-01T05:06:39.499Z,10.98
2022-09-01T05:09:10.044Z,12.43
2022-09-01T05:12:12.793Z,16.58
2022-09-01T05:14:48.804Z,11.20
2022-09-01T05:17:23.426Z,11.45
2022-09-01T05:22:23.216Z,10.88
2022-09-01T05:25:03.786Z,13.93
2022-09-01T05:27:33.448Z,10.00
2022-09-01T05:30:02.733Z,12.95
2022-09-01T05:32:37.188Z,13.13
2022-09-01T05:35:09.238Z,15.55
2022-09-01T05:37:39.874Z,15.68
2022-09-01T05:40:16.301Z,10.80
2022-09-01T05:42:47.806Z,11.50
2022-09-01T05:45:19.026Z,12.35
2022-09-01T05:47:50.375Z,10.00
2022-09-01T05:50:19.831Z,13.05
2022-09-01T05:52:51.203Z,9.93
2022-09-01T05:55:20.317Z,13.73
2022-09-01T05:57:50.744Z,14.75
2022-09-01T06:00:20.722Z,7.80
2022-09-01T06:02:53.824Z,13.50
2022-09-01T06:05:25.260Z,15.70
2022-09-01T06:07:57.386Z,13.57
2022-09-01T06:10:27.371Z,12.43
2022-09-01T06:12:58.983Z,16.07
2022-09-01T06:15:29.600Z,13.50
2022-09-01T06:18:00.765Z,9.38
2022-09-01T06:20:32.055Z,12.00
2022-09-01T06:23:02.707Z,19.20
2022-09-01T06:25:32.731Z,9.63
2022-09-01T06:28:04.612Z,13.95
2022-09-01T06:30:36.582Z,15.30
2022-09-01T06:33:14.189Z,13.15
2022-09-01T06:35:49.057Z,13.38
2022-09-01T06:38:21.038Z,15.68
2022-09-01T06:40:54.879Z,17.63
2022-09-01T06:43:25.768Z,16.60
2022-09-01T06:45:55.410Z,15.45
2022-09-01T06:48:27.433Z,13.38
2022-09-01T06:51:18.985Z,13.57
2022-09-01T06:53:57.154Z,16.20
2022-09-01T06:56:34.048Z,14.02
2022-09-01T06:59:15.652Z,15.32
2022-09-01T07:01:52.330Z,17.52
2022-09-01T07:04:30.419Z,14.50
2022-09-01T07:10:21.305Z,15.77
2022-09-01T07:13:08.998Z,15.38
2022-09-01T07:18:33.070Z,14.98
2022-09-01T07:21:36.179Z,15.00
2022-09-01T07:24:08.807Z,13.30
2022-09-01T07:26:47.226Z,13.43
2022-09-01T07:29:21.823Z,13.68
2022-09-01T07:34:49.063Z,12.82
2022-09-01T07:43:22.306Z,12.43
2022-09-01T07:46:00.499Z,17.02
2022-09-01T07:49:02.585Z,13.30
2022-09-01T07:51:38.122Z,12.77
2022-09-01T07:54:14.008Z,9.10
2022-09-01T07:56:44.582Z,13.73
2022-09-01T07:59:15.674Z,11.88
2022-09-01T08:02:14.374Z,10.02
2022-09-01T08:04:46.491Z,11.02
2022-09-01T08:07:16.225Z,11.65
2022-09-01T08:09:47.710Z,17.30
2022-09-01T08:12:18.551Z,13.85
2022-09-01T08:17:52.049Z,12.20
2022-09-01T08:20:23.334Z,12.93
2022-09-01T08:22:52.473Z,15.30
2022-09-01T08:25:44.203Z,14.60
2022-09-01T08:28:14.928Z,10.75
2022-09-01T08:30:52.206Z,21.63
2022-09-01T08:33:21.781Z,15.85
2022-09-01T08:35:51.306Z,15.13
2022-09-01T08:38:21.559Z,18.50
2022-09-01T08:40:57.067Z,11.65
2022-09-01T08:43:45.634Z,15.90
2022-09-01T08:46:25.180Z,15.25
2022-09-01T08:52:15.234Z,13.68
2022-09-01T08:54:48.276Z,14.25
2022-09-01T08:57:22.840Z,13.38
2022-09-01T09:00:13.849Z,9.88
2022-09-01T09:02:54.586Z,16.80
2022-09-01T09:05:42.849Z,12.80
2022-09-01T09:08:46.023Z,17.00
2022-09-01T09:11:34.825Z,15.10
2022-09-01T09:14:12.435Z,16.08
2022-09-01T09:16:43.904Z,12.70
2022-09-01T09:19:20.751Z,12.88
2022-09-01T09:21:52.069Z,10.75
2022-09-01T09:26:58.964Z,15.32
2022-09-01T09:29:29.938Z,11.00
2022-09-01T09:32:22.412Z,12.23
2022-09-01T09:34:52.915Z,8.40
2022-09-01T09:37:27.550Z,11.57
2022-09-01T09:40:10.573Z,13.93
2022-09-01T09:42:40.496Z,13.75
2022-09-01T09:45:24.808Z,12.80
2022-09-01T09:47:54.994Z,18.30
2022-09-01T09:50:29.597Z,13.27
2022-09-01T09:53:19.965Z,11.50
2022-09-01T09:56:00.092Z,14.15
2022-09-01T09:58:36.427Z,8.95
2022-09-01T10:01:15.406Z,9.00
2022-09-01T10:03:49.112Z,8.98
2022-09-01T10:06:34.175Z,12.82
2022-09-01T10:09:06.068Z,13.10
2022-09-01T10:11:40.968Z,10.20
2022-09-01T10:14:23.600Z,12.32
2022-09-01T10:17:10.651Z,13.43
2022-09-01T10:19:42.791Z,9.02
2022-09-01T10:22:15.169Z,11.77
2022-09-01T10:24:46.014Z,12.43
2022-09-01T10:27:23.042Z,9.15
2022-09-01T10:30:14.503Z,13.23
2022-09-01T10:32:55.224Z,11.95
2022-09-01T10:35:28.177Z,12.50
2022-09-01T10:37:59.566Z,13.18
2022-09-01T10:40:48.986Z,9.60
2022-09-01T10:43:28.566Z,11.32
2022-09-01T10:46:05.271Z,10.40
2022-09-01T10:48:48.597Z,10.82
2022-09-01T10:51:51.567Z,12.05
2022-09-01T10:54:56.357Z,9.02
2022-09-01T10:57:45.625Z,11.65
2022-09-01T11:01:10.664Z,12.13
2022-09-01T11:04:02.699Z,8.75
2022-09-01T11:07:13.592Z,8.88
2022-09-01T11:09:44.707Z,13.60
2022-09-01T11:12:43.016Z,13.00
2022-09-01T11:15:35.758Z,9.48
2022-09-01T11:18:10.573Z,12.55
2022-09-01T11:20:42.829Z,8.25
2022-09-01T11:23:22.291Z,9.55
2022-09-01T11:28:43.782Z,7.10
2022-09-01T11:31:32.077Z,11.32
2022-09-01T11:34:15.734Z,12.13
2022-09-01T11:37:04.096Z,11.60
2022-09-01T11:39:42.074Z,9.73
2022-09-01T11:42:20.219Z,9.82
2022-09-01T11:44:54.023Z,8.48
2022-09-01T11:47:27.322Z,10.73
2022-09-01T11:49:59.714Z,8.57
2022-09-01T11:52:33.390Z,10.48
2022-09-01T11:55:03.127Z,10.63
2022-09-01T11:57:34.746Z,12.70
2022-09-01T12:00:09.275Z,8.50
2022-09-01T12:02:47.332Z,10.43
2022-09-01T12:05:32.178Z,9.88
2022-09-01T12:08:05.033Z,11.43
2022-09-01T12:10:36.780Z,7.88
2022-09-01T12:13:08.526Z,10.15
2022-09-01T12:15:55.233Z,7.95
2022-09-01T12:18:35.886Z,8.30
2022-09-01T12:21:07.966Z,10.20
2022-09-01T12:23:43.219Z,13.27
2022-09-01T12:26:15.747Z,10.85
2022-09-01T12:28:54.799Z,9.25
2022-09-01T12:31:25.872Z,11.68
2022-09-01T12:33:57.185Z,13.18
2022-09-01T12:36:28.661Z,13.20
2022-09-01T12:39:23.877Z,8.63
2022-09-01T12:42:05.204Z,12.35
2022-09-01T12:44:43.995Z,13.75
2022-09-01T12:47:15.862Z,9.32
2022-09-01T12:49:50.644Z,9.32
2022-09-01T12:52:27.987Z,12.23
2022-09-01T12:55:47.302Z,9.20
2022-09-01T12:58:05.964Z,10.68
2022-09-01T13:00:37.027Z,11.32
2022-09-01T13:03:14.587Z,10.68
2022-09-01T13:05:47.179Z,10.05
2022-09-01T13:08:19.425Z,7.15
2022-09-01T13:10:53.361Z,11.82
2022-09-01T13:13:24.268Z,12.30
2022-09-01T13:15:55.710Z,11.02
2022-09-01T13:18:26.657Z,9.88
2022-09-01T13:20:56.723Z,8.27
2022-09-01T13:23:26.162Z,8.13
2022-09-01T13:25:57.065Z,10.80
2022-09-01T13:28:27.045Z,8.55
2022-09-01T13:36:48.297Z,12.05
2022-09-01T13:39:18.785Z,11.38
2022-09-01T13:41:49.468Z,12.10
2022-09-01T13:44:19.571Z,11.57
2022-09-01T13:50:06.507Z,11.20
2022-09-01T13:52:27.149Z,12.38
2022-09-01T13:54:56.203Z,7.95
2022-09-01T13:57:27.256Z,7.65
2022-09-01T14:00:08.306Z,11.45
2022-09-01T14:02:39.590Z,14.63
2022-09-01T14:05:09.780Z,10.38
2022-09-01T14:07:38.876Z,10.98
2022-09-01T14:10:09.126Z,8.18
2022-09-01T14:12:39.937Z,14.35
2022-09-01T14:15:15.211Z,13.95
2022-09-01T14:17:46.286Z,11.98
2022-09-01T14:20:18.394Z,11.30
2022-09-01T14:22:48.847Z,12.88
2022-09-01T14:25:20.211Z,9.27
2022-09-01T14:30:25.701Z,10.65
2022-09-01T14:32:59.554Z,11.77
2022-09-01T14:35:28.870Z,11.05
2022-09-01T14:37:59.094Z,7.85
2022-09-01T14:40:29.448Z,6.30
2022-09-01T14:42:59.978Z,14.15
2022-09-01T14:45:29.921Z,6.60
2022-09-01T14:48:01.586Z,10.02
2022-09-01T14:50:32.811Z,9.63
2022-09-01T14:53:03.190Z,9.70
2022-09-01T14:55:33.044Z,6.47
2022-09-01T14:58:05.227Z,12.80
2022-09-01T15:00:37.082Z,8.90
2022-09-01T15:03:06.260Z,9.30
2022-09-01T15:05:40.230Z,10.50
2022-09-01T15:08:15.466Z,7.22
2022-09-01T15:10:47.131Z,4.38
2022-09-01T15:13:17.843Z,9.55
2022-09-01T15:15:47.095Z,7.40
2022-09-01T15:18:16.386Z,8.15
2022-09-01T15:20:50.978Z,5.22
2022-09-01T15:23:22.278Z,7.80
2022-09-01T15:25:53.926Z,6.72
2022-09-01T15:28:24.544Z,6.35
2022-09-01T15:30:57.100Z,5.47
2022-09-01T15:33:26.182Z,7.85
2022-09-01T15:35:55.269Z,6.57
2022-09-01T15:38:29.795Z,8.48
2022-09-01T15:41:01.749Z,8.00
2022-09-01T15:43:32.717Z,10.10
2022-09-01T15:46:05.453Z,5.90
2022-09-01T15:48:35.550Z,8.27
2022-09-01T15:51:31.456Z,6.35
2022-09-01T15:54:02.651Z,6.60
2022-09-01T15:56:32.498Z,7.38
2022-09-01T15:59:04.072Z,7.38
2022-09-01T16:01:36.234Z,9.10
2022-09-01T16:04:06.648Z,7.57
2022-09-01T16:06:36.281Z,7.90
2022-09-01T16:09:05.856Z,5.53
2022-09-01T16:11:36.348Z,8.00
2022-09-01T16:14:07.160Z,9.65
2022-09-01T16:16:45.900Z,6.57
2022-09-01T16:19:27.441Z,7.07
2022-09-01T16:24:34.327Z,10.18
2022-09-01T16:27:03.855Z,6.95
2022-09-01T16:29:45.329Z,7.03
2022-09-01T16:32:15.450Z,7.30
2022-09-01T16:34:47.169Z,6.88
2022-09-01T16:37:29.391Z,12.40
2022-09-01T16:40:08.041Z,8.57
2022-09-01T16:42:46.994Z,6.53
2022-09-01T16:45:29.250Z,8.70
2022-09-01T16:48:09.262Z,10.10
2022-09-01T16:50:45.442Z,9.68
2022-09-01T16:53:26.664Z,9.52
2022-09-01T16:56:09.051Z,4.45
2022-09-01T16:58:47.426Z,8.15
2022-09-01T17:01:30.337Z,6.63
2022-09-01T17:04:12.031Z,8.10
2022-09-01T17:06:52.954Z,7.28
2022-09-01T17:09:25.649Z,5.43
2022-09-01T17:11:59.059Z,6.70
2022-09-01T17:14:37.179Z,6.57
2022-09-01T17:17:12.163Z,7.32
2022-09-01T17:19:43.220Z,3.97
2022-09-01T17:22:13.910Z,6.80
2022-09-01T17:24:45.759Z,5.68
2022-09-01T17:27:21.468Z,7.93
2022-09-01T17:29:52.915Z,10.00
2022-09-01T17:32:48.346Z,5.00
2022-09-01T17:35:25.044Z,5.00
2022-09-01T17:38:03.920Z,7.15
2022-09-01T17:40:50.440Z,6.80
2022-09-01T17:43:26.371Z,8.27
2022-09-01T17:46:04.447Z,7.50
2022-09-01T17:48:44.017Z,6.45
2022-09-01T17:51:20.019Z,7.75
2022-09-01T17:53:59.361Z,9.68
2022-09-01T17:56:47.650Z,6.65
2022-09-01T17:59:26.751Z,9.48
2022-09-01T18:02:05.311Z,6.43
2022-09-01T18:05:06.427Z,8.13
2022-09-01T18:07:57.227Z,7.15
2022-09-01T18:10:31.299Z,9.97
2022-09-01T18:13:06.039Z,7.95
2022-09-01T18:15:44.966Z,6.30
2022-09-01T18:18:35.834Z,11.13
2022-09-01T18:21:10.835Z,9.00
2022-09-01T18:23:42.667Z,9.18
2022-09-01T18:26:19.490Z,9.60
2022-09-01T18:28:52.886Z,7.07
2022-09-01T18:31:47.080Z,6.30
2022-09-01T18:34:24.447Z,5.70
2022-09-01T18:37:01.082Z,7.32
2022-09-01T18:39:39.496Z,9.80
2022-09-01T18:42:16.149Z,5.75
2022-09-01T18:44:54.866Z,5.68
2022-09-01T18:47:33.085Z,6.78
2022-09-01T18:50:09.849Z,4.75
2022-09-01T18:53:01.011Z,5.65
2022-09-01T18:55:40.026Z,10.18
2022-09-01T18:58:20.319Z,7.55
2022-09-01T19:00:57.862Z,9.68
2022-09-01T19:03:33.670Z,7.72
2022-09-01T19:06:20.440Z,8.00
2022-09-01T19:09:04.192Z,20.83
2022-09-01T19:11:48.102Z,15.10
2022-09-01T19:14:27.135Z,14.52
2022-09-01T19:17:06.057Z,17.75
2022-09-01T19:19:44.203Z,15.38
2022-09-01T19:22:17.788Z,15.60
2022-09-01T19:24:53.859Z,12.18
2022-09-01T19:27:31.299Z,8.20
2022-09-01T19:30:05.875Z,10.40
2022-09-01T19:32:36.925Z,12.13
2022-09-01T19:35:11.223Z,7.53
2022-09-01T19:37:44.076Z,12.32
2022-09-01T19:40:18.182Z,6.43
2022-09-01T19:43:00.391Z,6.40
2022-09-01T19:45:39.164Z,7.90
2022-09-01T19:48:15.740Z,4.85
2022-09-01T19:50:51.115Z,5.15
2022-09-01T19:53:33.083Z,4.57
2022-09-01T19:56:10.466Z,6.93
2022-09-01T19:58:59.663Z,10.38
2022-09-01T20:01:40.703Z,5.32
2022-09-01T20:04:21.584Z,4.85
2022-09-01T20:06:56.681Z,4.85
2022-09-01T20:09:32.435Z,8.70
2022-09-01T20:12:14.278Z,6.72
2022-09-01T20:14:58.930Z,5.65
2022-09-01T20:17:34.346Z,6.03
2022-09-01T20:20:09.545Z,6.82
2022-09-01T20:22:45.064Z,6.18
2022-09-01T20:25:17.955Z,6.13
2022-09-01T20:27:58.969Z,10.98
2022-09-01T20:30:31.330Z,5.90
2022-09-01T20:33:04.863Z,7.63
2022-09-01T20:35:41.876Z,7.13
2022-09-01T20:38:31.190Z,8.40
2022-09-01T20:41:05.963Z,6.60
2022-09-01T20:43:41.464Z,8.10
2022-09-01T20:46:11.241Z,8.20
2022-09-01T20:48:42.711Z,5.85
2022-09-01T20:51:17.258Z,6.28
2022-09-01T20:54:04.268Z,6.78
2022-09-01T20:56:44.079Z,9.88
2022-09-01T20:59:23.764Z,7.43
2022-09-01T21:02:00.457Z,7.10
2022-09-01T21:04:42.638Z,7.43
2022-09-01T21:07:17.317Z,7.75
2022-09-01T21:09:57.474Z,7.50
2022-09-01T21:12:37.231Z,8.35
2022-09-01T21:15:33.863Z,7.57
2022-09-01T21:18:14.301Z,7.13
2022-09-01T21:20:55.014Z,6.45
2022-09-01T21:23:26.318Z,11.40
2022-09-01T21:28:26.567Z,7.20
2022-09-01T21:33:29.180Z,7.45
2022-09-01T21:35:59.025Z,6.32
2022-09-01T21:38:29.514Z,9.05
2022-09-01T21:41:00.567Z,5.87
2022-09-01T21:43:33.020Z,6.80
2022-09-01T21:46:04.125Z,9.13
2022-09-01T21:48:33.342Z,7.55
2022-09-01T21:51:04.659Z,7.78
2022-09-01T21:56:03.274Z,5.85
2022-09-01T21:58:32.500Z,6.50
2022-09-01T22:01:05.110Z,8.90
2022-09-01T22:03:34.263Z,8.00
2022-09-01T22:06:03.630Z,6.68
2022-09-01T22:08:33.017Z,7.40
2022-09-01T22:11:02.058Z,8.07
2022-09-01T22:13:31.167Z,7.50
2022-09-01T22:16:00.156Z,5.65
2022-09-01T22:18:30.631Z,10.07
2022-09-01T22:21:04.348Z,5.57
2022-09-01T22:23:33.517Z,6.15
2022-09-01T22:26:03.233Z,6.78
2022-09-01T22:28:32.504Z,7.65
2022-09-01T22:31:01.979Z,9.20
2022-09-01T22:33:32.694Z,8.45
2022-09-01T22:36:01.790Z,4.70
2022-09-01T22:38:30.876Z,5.88
2022-09-01T22:41:00.505Z,5.95
2022-09-01T22:43:31.625Z,7.55
2022-09-01T22:46:00.838Z,6.28
2022-09-01T22:48:30.376Z,5.47
2022-09-01T22:51:05.095Z,5.72
2022-09-01T22:53:37.431Z,4.82
2022-09-01T22:56:12.411Z,6.28
2022-09-01T22:58:42.128Z,4.60
2022-09-01T23:01:15.094Z,5.88
2022-09-01T23:03:44.882Z,7.13
2022-09-01T23:06:27.385Z,9.25
2022-09-01T23:08:58.106Z,8.13
2022-09-01T23:11:28.398Z,9.20
2022-09-01T23:13:57.661Z,6.57
2022-09-01T23:16:27.807Z,7.55
2022-09-01T23:18:57.021Z,11.57
2022-09-01T23:21:33.413Z,7.75
2022-09-01T23:24:02.826Z,7.43
2022-09-01T23:26:32.981Z,7.25
2022-09-01T23:29:03.220Z,13.18
2022-09-01T23:31:34.675Z,6.60
2022-09-01T23:34:04.893Z,8.02
2022-09-01T23:36:36.485Z,8.07
2022-09-01T23:39:06.713Z,7.50
2022-09-01T23:41:37.789Z,6.45
2022-09-01T23:44:09.667Z,7.13
2022-09-01T23:46:42.257Z,8.15
2022-09-01T23:49:13.150Z,8.82
2022-09-01T23:51:44.500Z,6.03
2022-09-01T23:56:42.718Z,7.65
2022-09-01T23:59:11.851Z,8.90
